ESNZ

Östersund Airport

Östersund, Sweden
METAR ESNZ 172120Z AUTO 31007KT 9999 NCD 02/01 Q1041
Observed Flight Rules
Nov-17 @ 21:20 UTC (17 minutes ago) Visual Flight Rules
Wind Visibility Clouds
310° at 7 knots 10,000+ meters
  • Clear skies
Temperatures Readings
Current 2°C / 36°F
Dewpoint 1°C / 34°F
Humidity 93%
Altimeter 30.74" Hg
Pressure 1041 hPa
Elevation 370
METAR ESNZ 172120Z AUTO 31007KT 9999 NCD 02/01 Q1041
Observed Flight Rules
Nov-17 @ 21:20 UTC
(17 minutes ago)
VFR
Wind Visibility
310° at 7 knots 10,000+ meters
Clouds
  • Clear skies
Temperature Dewpoint
2°C / 36°F 1°C / 34°F
Humidity Altimeter Pressure
93% 30.74" Hg 1041 hPa